Time;durP1;ratioP1;P1;durP2;ratioP2;P2;SDS_P1;SDS_P2;PMS_P1;PMS_P2;Temp;Humidity;BMP_temperature;BMP_pressure;BME280_temperature;BME280_humidity;BME280_pressure;Samples;Min_cycle;Max_cycle;Signal;HPM_P1;HPM_P2
2023/03/06 00:01:36;;;;;;;4.13;1.50;;;4.80;99.90;;;;;;5045232;28;20055;-85
2023/03/06 00:04:02;;;;;;;4.55;1.45;;;2.80;99.90;;;;;;5063862;28;20123;-85
2023/03/06 00:06:28;;;;;;;4.85;1.40;;;2.80;99.90;;;;;;5062948;28;20044;-85
2023/03/06 00:08:53;;;;;;;5.05;1.60;;;4.30;99.90;;;;;;5064158;28;20032;-84
2023/03/06 00:11:19;;;;;;;4.65;1.40;;;2.80;99.90;;;;;;5066062;28;20127;-84
2023/03/06 00:13:45;;;;;;;4.13;1.50;;;2.60;99.90;;;;;;5061364;28;20048;-85
2023/03/06 00:16:11;;;;;;;5.00;1.60;;;2.60;99.90;;;;;;5063325;28;20036;-85
2023/03/06 00:18:37;;;;;;;6.47;1.67;;;2.50;99.90;;;;;;5063970;28;20508;-84
2023/03/06 00:21:06;;;;;;;6.90;1.60;;;3.90;99.90;;;;;;5047514;28;20067;-83
2023/03/06 00:23:32;;;;;;;7.07;2.05;;;2.60;99.90;;;;;;5064965;28;20382;-85
2023/03/06 00:25:58;;;;;;;6.22;1.77;;;3.70;99.90;;;;;;5022231;28;20488;-84
2023/03/06 00:28:23;;;;;;;5.03;1.60;;;4.40;99.90;;;;;;5045586;28;20052;-85
2023/03/06 00:30:49;;;;;;;5.22;1.48;;;2.70;99.90;;;;;;5061469;28;20045;-85
2023/03/06 00:33:15;;;;;;;5.30;1.80;;;2.70;99.90;;;;;;5065512;28;20497;-85
2023/03/06 00:35:41;;;;;;;5.15;1.65;;;4.00;99.90;;;;;;5062394;28;20041;-84
2023/03/06 00:38:09;;;;;;;4.45;1.70;;;3.60;99.90;;;;;;5046037;28;20055;-85
2023/03/06 00:40:35;;;;;;;3.45;1.40;;;2.60;99.90;;;;;;5065495;28;20543;-84
2023/03/06 00:43:00;;;;;;;3.15;1.40;;;3.60;99.90;;;;;;5061685;28;20033;-85
2023/03/06 00:45:26;;;;;;;3.28;1.50;;;2.90;99.90;;;;;;5064012;28;20497;-83
2023/03/06 00:47:52;;;;;;;3.72;1.45;;;2.60;99.90;;;;;;5047160;28;20032;-84
2023/03/06 00:50:17;;;;;;;3.60;1.50;;;4.10;99.90;;;;;;5044524;28;20073;-85
2023/03/06 00:52:43;;;;;;;3.50;1.30;;;2.50;99.90;;;;;;5065105;28;20038;-85
2023/03/06 00:55:09;;;;;;;2.60;1.30;;;3.70;99.90;;;;;;5063706;28;20044;-84
2023/03/06 00:57:35;;;;;;;5.05;1.55;;;2.60;99.90;;;;;;5064010;28;20170;-84
2023/03/06 01:00:02;;;;;;;5.10;1.50;;;3.20;99.90;;;;;;5045709;28;20036;-83
2023/03/06 01:02:28;;;;;;;5.53;1.50;;;2.50;99.90;;;;;;5062899;28;20028;-85
2023/03/06 01:04:54;;;;;;;2.80;1.35;;;2.50;99.90;;;;;;5063964;28;20171;-84
2023/03/06 01:07:20;;;;;;;5.70;1.63;;;2.50;99.90;;;;;;5063892;28;20068;-85
2023/03/06 01:09:45;;;;;;;3.97;1.45;;;4.30;99.90;;;;;;5046701;28;20051;-85
2023/03/06 01:12:11;;;;;;;7.28;1.85;;;2.50;99.90;;;;;;5030176;28;20036;-85
2023/03/06 01:14:37;;;;;;;3.90;1.42;;;2.40;99.90;;;;;;5063065;28;20116;-85
2023/03/06 01:17:03;;;;;;;5.05;1.48;;;3.40;99.90;;;;;;5065355;28;20123;-87
2023/03/06 01:19:29;;;;;;;3.78;1.40;;;2.30;99.90;;;;;;5069007;28;20036;-84
2023/03/06 01:21:54;;;;;;;4.93;1.50;;;2.30;99.90;;;;;;5067494;28;20489;-85
2023/03/06 01:24:22;;;;;;;3.95;1.40;;;2.60;99.90;;;;;;5050198;28;20058;-85
2023/03/06 01:26:48;;;;;;;5.72;1.70;;;2.20;99.90;;;;;;5065130;28;20071;-84
2023/03/06 01:29:14;;;;;;;2.70;1.40;;;2.20;99.90;;;;;;5064584;28;20087;-85
2023/03/06 01:31:39;;;;;;;5.22;1.67;;;2.20;99.90;;;;;;5032815;28;20059;-84
2023/03/06 01:34:05;;;;;;;6.07;1.58;;;4.10;99.90;;;;;;5050481;28;20471;-85
2023/03/06 01:36:31;;;;;;;5.03;1.63;;;2.10;99.90;;;;;;5048852;28;20048;-84
2023/03/06 01:38:56;;;;;;;4.93;1.70;;;2.10;99.90;;;;;;5084120;28;20543;-86
2023/03/06 01:41:22;;;;;;;7.45;1.70;;;2.00;99.90;;;;;;5066867;28;20497;-85
2023/03/06 01:43:48;;;;;;;3.85;1.70;;;2.00;99.90;;;;;;5050558;28;20068;-84
2023/03/06 01:46:24;;;;;;;4.95;1.45;;;3.00;99.90;;;;;;5064991;28;20032;-85
2023/03/06 01:49:01;;;;;;;4.13;1.65;;;1.90;99.90;;;;;;5065730;28;20051;-84
2023/03/06 01:51:52;;;;;;;6.22;1.50;;;1.90;99.90;;;;;;5083541;28;20473;-85
2023/03/06 01:54:26;;;;;;;5.53;1.50;;;1.80;99.90;;;;;;5063252;28;20529;-84
2023/03/06 01:56:56;;;;;;;4.15;1.60;;;1.90;99.90;;;;;;5066140;28;20041;-85
2023/03/06 01:59:25;;;;;;;5.75;1.80;;;1.80;99.90;;;;;;5066633;28;20064;-84
2023/03/06 02:01:52;;;;;;;3.85;1.58;;;2.80;99.90;;;;;;5049410;28;20037;-85
2023/03/06 02:04:18;;;;;;;4.45;1.60;;;3.30;99.90;;;;;;5067237;28;20051;-84
2023/03/06 02:06:46;;;;;;;3.70;1.63;;;3.30;99.90;;;;;;5048804;28;20263;-84
2023/03/06 02:09:12;;;;;;;4.22;1.52;;;1.70;99.90;;;;;;5066341;28;20640;-84
2023/03/06 02:11:42;;;;;;;4.70;1.65;;;3.30;99.90;;;;;;5066688;28;20041;-85
2023/03/06 02:14:13;;;;;;;6.53;1.90;;;1.80;99.90;;;;;;5066611;28;20094;-84
2023/03/06 02:16:40;;;;;;;4.95;1.60;;;1.80;99.90;;;;;;5066233;28;20055;-84
2023/03/06 02:19:15;;;;;;;4.95;1.60;;;1.80;99.90;;;;;;5067786;28;20066;-85
2023/03/06 02:21:41;;;;;;;4.57;1.60;;;1.80;99.90;;;;;;5062908;28;20102;-84
2023/03/06 02:24:31;;;;;;;5.53;1.80;;;2.50;99.90;;;;;;5049593;28;20401;-86
2023/03/06 02:26:59;;;;;;;5.72;2.05;;;1.80;99.90;;;;;;5065810;28;20526;-84
2023/03/06 02:29:27;;;;;;;5.28;2.17;;;2.80;99.90;;;;;;5066341;28;20525;-84
2023/03/06 02:31:53;;;;;;;3.95;1.80;;;1.80;99.90;;;;;;5060836;28;20037;-85
2023/03/06 02:34:19;;;;;;;4.57;1.80;;;1.80;99.90;;;;;;5064325;28;20040;-84
2023/03/06 02:36:48;;;;;;;3.85;1.80;;;3.00;99.90;;;;;;5066521;28;20600;-84
2023/03/06 02:39:17;;;;;;;3.45;1.50;;;1.80;99.90;;;;;;5083496;28;20031;-85
2023/03/06 02:41:43;;;;;;;4.55;1.60;;;1.80;99.90;;;;;;5028331;28;20045;-84
2023/03/06 02:44:08;;;;;;;6.43;1.90;;;3.10;99.90;;;;;;5063599;28;20054;-85
2023/03/06 02:46:34;;;;;;;4.72;1.75;;;1.80;99.90;;;;;;5065197;28;20043;-85
2023/03/06 02:49:00;;;;;;;3.95;1.70;;;3.20;99.90;;;;;;5049336;28;20110;-85
2023/03/06 02:51:25;;;;;;;4.22;1.63;;;1.80;99.90;;;;;;5065158;28;20047;-86
2023/03/06 02:53:51;;;;;;;4.70;1.83;;;1.80;99.90;;;;;;5066664;28;20101;-85
2023/03/06 02:56:18;;;;;;;6.00;2.17;;;1.80;99.90;;;;;;5066016;28;20119;-85
2023/03/06 02:58:44;;;;;;;5.38;1.83;;;1.80;99.90;;;;;;5065773;28;20040;-85
2023/03/06 03:01:10;;;;;;;6.57;1.75;;;3.00;99.90;;;;;;5031697;28;20037;-84
2023/03/06 03:03:36;;;;;;;6.70;2.22;;;1.70;99.90;;;;;;5031382;28;20607;-84
2023/03/06 03:06:04;;;;;;;5.82;1.88;;;1.70;99.90;;;;;;5063935;28;20072;-85
2023/03/06 03:08:30;;;;;;;5.78;2.00;;;1.80;99.90;;;;;;5065254;28;20437;-85
2023/03/06 03:10:56;;;;;;;6.00;2.05;;;1.80;99.90;;;;;;5065111;28;20059;-84
2023/03/06 03:13:22;;;;;;;7.05;2.40;;;3.70;99.90;;;;;;5048179;28;20405;-86
2023/03/06 03:16:02;;;;;;;7.95;2.50;;;1.90;99.90;;;;;;5048995;28;20028;-86
2023/03/06 03:18:29;;;;;;;5.90;2.00;;;1.90;99.90;;;;;;5065050;28;20127;-84
2023/03/06 03:20:55;;;;;;;6.45;2.10;;;2.30;99.90;;;;;;5064659;28;20085;-87
2023/03/06 03:23:21;;;;;;;8.00;2.20;;;1.90;99.90;;;;;;5065653;28;20040;-84
2023/03/06 03:25:47;;;;;;;5.65;2.15;;;2.40;99.90;;;;;;5065034;28;20592;-85
2023/03/06 03:28:12;;;;;;;7.50;2.20;;;1.70;99.90;;;;;;5062182;28;20264;-85
2023/03/06 03:30:40;;;;;;;6.65;2.13;;;1.80;99.90;;;;;;5081954;28;20505;-85
2023/03/06 03:33:05;;;;;;;6.85;2.10;;;1.90;99.90;;;;;;5064429;28;20049;-85
2023/03/06 03:35:31;;;;;;;7.50;2.30;;;1.90;99.90;;;;;;5064093;28;20063;-84
2023/03/06 03:37:57;;;;;;;7.97;2.10;;;;;;;;;;5064767;28;20053;-85
2023/03/06 03:40:23;;;;;;;6.85;2.15;;;;;;;;;;5064337;28;20047;-84
2023/03/06 03:42:49;;;;;;;6.75;2.08;;;1.80;99.90;;;;;;5064503;28;20044;-84
2023/03/06 03:45:15;;;;;;;6.03;1.98;;;1.80;99.90;;;;;;5064569;28;20590;-85
2023/03/06 03:47:40;;;;;;;6.70;2.25;;;1.80;99.90;;;;;;5048180;28;20040;-85
2023/03/06 03:50:08;;;;;;;7.22;2.33;;;1.80;99.90;;;;;;5048446;28;20105;-84
2023/03/06 03:52:33;;;;;;;6.45;2.10;;;1.80;99.90;;;;;;5064443;28;20568;-85
2023/03/06 03:54:59;;;;;;;6.05;2.15;;;1.80;99.90;;;;;;5047448;28;20036;-87
2023/03/06 03:57:25;;;;;;;4.90;2.05;;;1.70;99.90;;;;;;5066498;28;20040;-85
2023/03/06 03:59:51;;;;;;;6.20;1.98;;;3.30;99.90;;;;;;5046749;28;20036;-86
2023/03/06 04:02:16;;;;;;;5.45;1.85;;;1.70;99.90;;;;;;5063430;28;20041;-84
2023/03/06 04:04:42;;;;;;;5.85;1.92;;;1.70;99.90;;;;;;5064685;28;20105;-83
2023/03/06 04:07:09;;;;;;;5.57;2.00;;;1.60;99.90;;;;;;5047550;28;20047;-86
2023/03/06 04:09:34;;;;;;;5.30;1.80;;;1.50;99.90;;;;;;5065017;28;20044;-85
2023/03/06 04:12:00;;;;;;;5.63;1.77;;;1.60;99.90;;;;;;5066109;28;20044;-84
2023/03/06 04:14:26;;;;;;;5.13;1.80;;;1.50;99.90;;;;;;5047584;28;20040;-84
2023/03/06 04:16:51;;;;;;;5.47;1.63;;;1.50;99.90;;;;;;5063685;28;20512;-84
2023/03/06 04:19:17;;;;;;;5.97;1.98;;;1.50;99.90;;;;;;5048230;28;20039;-85
2023/03/06 04:21:43;;;;;;;4.95;1.92;;;2.00;99.90;;;;;;5047394;28;20059;-87
2023/03/06 04:24:08;;;;;;;4.82;1.80;;;1.40;99.90;;;;;;5063021;28;20390;-84
2023/03/06 04:26:34;;;;;;;6.70;1.80;;;1.40;99.90;;;;;;5063316;28;20149;-84
2023/03/06 04:29:00;;;;;;;5.32;2.00;;;1.40;99.90;;;;;;5044574;28;20048;-85
2023/03/06 04:31:26;;;;;;;4.72;1.63;;;1.40;99.90;;;;;;5063873;28;20394;-85
2023/03/06 04:33:52;;;;;;;5.22;1.85;;;1.40;99.90;;;;;;5048208;28;20044;-85
2023/03/06 04:36:31;;;;;;;6.38;1.83;;;1.40;99.90;;;;;;5063491;28;20485;-85
2023/03/06 04:38:58;;;;;;;4.68;1.80;;;1.40;99.90;;;;;;5064631;28;20525;-84
2023/03/06 04:41:23;;;;;;;6.13;1.83;;;1.40;99.90;;;;;;5064221;28;20029;-85
2023/03/06 04:43:50;;;;;;;5.20;1.80;;;3.00;99.90;;;;;;5064241;28;20051;-84
2023/03/06 04:46:15;;;;;;;5.50;1.80;;;1.40;99.90;;;;;;5064053;28;20501;-85
2023/03/06 04:48:41;;;;;;;5.18;1.75;;;1.50;99.90;;;;;;5062638;28;21411;-85
2023/03/06 04:51:07;;;;;;;5.95;2.00;;;1.50;99.90;;;;;;5066595;28;20178;-84
2023/03/06 04:53:33;;;;;;;4.70;1.80;;;;;;;;;;5051328;28;20551;-84
2023/03/06 04:55:59;;;;;;;5.15;1.90;;;1.50;99.90;;;;;;5050716;28;20045;-85
2023/03/06 04:58:25;;;;;;;5.50;1.75;;;1.50;99.90;;;;;;5065045;28;20041;-85
2023/03/06 05:00:51;;;;;;;5.53;1.80;;;1.50;99.90;;;;;;5068401;28;20123;-85
2023/03/06 05:03:16;;;;;;;5.43;1.90;;;1.60;99.90;;;;;;5066726;28;20198;-84
2023/03/06 05:05:42;;;;;;;6.82;2.00;;;2.20;99.90;;;;;;5033508;28;20036;-85
2023/03/06 05:08:14;;;;;;;5.93;1.90;;;1.60;99.90;;;;;;5051407;28;20028;-86
2023/03/06 05:10:41;;;;;;;4.18;1.50;;;1.60;99.90;;;;;;5067358;28;20043;-84
2023/03/06 05:13:07;;;;;;;5.90;2.00;;;1.50;99.90;;;;;;5067377;28;20059;-85
2023/03/06 05:15:32;;;;;;;4.90;1.63;;;1.50;99.90;;;;;;5068035;28;20044;-84
2023/03/06 05:17:58;;;;;;;6.38;1.85;;;1.50;99.90;;;;;;5067312;28;20497;-86
2023/03/06 05:20:24;;;;;;;5.55;1.70;;;1.50;99.90;;;;;;5068000;28;20032;-86
2023/03/06 05:22:50;;;;;;;5.55;1.75;;;1.50;99.90;;;;;;5066503;28;20485;-86
2023/03/06 05:25:15;;;;;;;6.57;1.60;;;1.50;99.90;;;;;;5069004;28;20032;-85
2023/03/06 05:27:41;;;;;;;6.65;2.08;;;1.50;99.90;;;;;;5066127;28;20044;-85
2023/03/06 05:30:12;;;;;;;5.10;1.80;;;1.50;99.90;;;;;;5064906;28;20056;-86
2023/03/06 05:32:37;;;;;;;6.50;1.95;;;1.50;99.90;;;;;;5064123;28;20489;-85
2023/03/06 05:35:04;;;;;;;4.97;1.75;;;1.60;99.90;;;;;;5065468;28;20051;-86
2023/03/06 05:37:30;;;;;;;5.15;1.80;;;1.50;99.90;;;;;;5048581;28;20467;-85
2023/03/06 05:39:56;;;;;;;5.05;1.83;;;1.50;99.90;;;;;;5068056;28;20059;-85
2023/03/06 05:42:21;;;;;;;5.82;1.70;;;1.50;99.90;;;;;;5047456;28;20039;-85
2023/03/06 05:44:47;;;;;;;5.75;1.70;;;1.50;99.90;;;;;;5049454;28;20032;-86
2023/03/06 05:47:13;;;;;;;7.47;1.95;;;1.60;99.90;;;;;;5059275;28;20052;-85
2023/03/06 05:49:38;;;;;;;5.25;1.70;;;1.50;99.90;;;;;;5061474;28;20043;-87
2023/03/06 05:52:05;;;;;;;5.43;1.85;;;1.60;99.90;;;;;;5065705;28;20658;-87
2023/03/06 05:54:32;;;;;;;7.40;2.17;;;1.60;99.90;;;;;;5066511;28;20040;-85
2023/03/06 05:56:58;;;;;;;6.80;2.00;;;2.60;99.90;;;;;;5065352;28;20047;-87
2023/03/06 05:59:27;;;;;;;5.43;2.00;;;1.60;99.90;;;;;;5068899;28;20106;-86
2023/03/06 06:01:56;;;;;;;7.30;2.40;;;-0.20;99.90;;;;;;5048104;28;20111;-85
2023/03/06 06:04:24;;;;;;;7.00;2.35;;;1.50;99.90;;;;;;5064269;28;20036;-85
2023/03/06 06:06:53;;;;;;;7.72;2.28;;;3.10;99.90;;;;;;5058595;28;20485;-86
2023/03/06 06:09:18;;;;;;;7.85;2.65;;;1.50;99.90;;;;;;5049162;28;20512;-89
2023/03/06 06:11:44;;;;;;;7.78;2.50;;;1.50;99.90;;;;;;5031423;28;20037;-89
2023/03/06 06:14:10;;;;;;;8.75;2.70;;;1.40;99.90;;;;;;5064311;28;20217;-85
2023/03/06 06:16:35;;;;;;;9.65;2.75;;;1.40;99.90;;;;;;5064560;28;20576;-86
2023/03/06 06:19:01;;;;;;;8.52;2.95;;;1.40;99.90;;;;;;5030310;28;20158;-84
2023/03/06 06:21:27;;;;;;;7.70;2.90;;;1.40;99.90;;;;;;5064378;28;20059;-85
2023/03/06 06:23:52;;;;;;;7.07;2.60;;;1.30;99.90;;;;;;5062743;28;20055;-84
2023/03/06 06:26:19;;;;;;;7.63;2.80;;;1.30;99.90;;;;;;5067242;28;20068;-86
2023/03/06 06:28:44;;;;;;;7.07;2.38;;;1.30;99.90;;;;;;5065624;28;20044;-86
2023/03/06 06:31:11;;;;;;;8.57;2.30;;;1.20;99.90;;;;;;5060243;28;20069;-86
2023/03/06 06:33:38;;;;;;;7.25;2.13;;;1.30;99.90;;;;;;5063285;28;20083;-85
2023/03/06 06:36:07;;;;;;;8.52;2.55;;;;;;;;;;5042605;28;20078;-85
2023/03/06 06:38:33;;;;;;;7.03;2.30;;;1.20;99.90;;;;;;5064506;28;20701;-86
2023/03/06 06:41:02;;;;;;;8.88;2.47;;;1.20;99.90;;;;;;5065121;28;20048;-87
2023/03/06 06:43:30;;;;;;;6.65;2.20;;;1.20;99.90;;;;;;5064317;28;20036;-85
2023/03/06 06:45:58;;;;;;;7.70;2.38;;;2.20;99.90;;;;;;5048518;28;20102;-87
2023/03/06 06:48:23;;;;;;;9.07;2.53;;;1.30;99.90;;;;;;5065828;28;20040;-87
2023/03/06 06:50:57;;;;;;;9.35;2.42;;;1.30;99.90;;;;;;5047533;28;20069;-86
2023/03/06 06:53:23;;;;;;;7.20;2.30;;;1.30;99.90;;;;;;5065208;28;20486;-86
2023/03/06 06:55:48;;;;;;;7.25;2.40;;;1.30;99.90;;;;;;5063709;28;20032;-86
2023/03/06 06:58:15;;;;;;;6.65;2.20;;;;;;;;;;5066094;28;20036;-86
2023/03/06 07:00:40;;;;;;;6.72;2.30;;;1.30;99.90;;;;;;5048340;28;20074;-86
2023/03/06 07:03:07;;;;;;;6.53;2.10;;;1.30;99.90;;;;;;5064172;28;20045;-86
2023/03/06 07:05:33;;;;;;;8.95;2.85;;;1.40;99.90;;;;;;5062846;28;20105;-85
2023/03/06 07:07:59;;;;;;;7.72;2.60;;;1.20;99.90;;;;;;5065175;28;20048;-88
2023/03/06 07:10:24;;;;;;;9.30;2.90;;;1.40;99.90;;;;;;5040341;28;20064;-87
2023/03/06 07:12:50;;;;;;;8.77;2.97;;;3.00;99.90;;;;;;5069189;28;20432;-83
2023/03/06 07:15:17;;;;;;;10.10;2.80;;;1.40;99.90;;;;;;5059031;28;20032;-85
2023/03/06 07:17:42;;;;;;;10.77;3.13;;;1.50;99.90;;;;;;5054224;28;20040;-85
2023/03/06 07:20:11;;;;;;;10.13;3.40;;;1.50;99.90;;;;;;5066589;28;20493;-84
2023/03/06 07:22:37;;;;;;;9.40;3.25;;;1.40;99.90;;;;;;5050447;28;20044;-84
2023/03/06 07:25:04;;;;;;;9.23;3.17;;;3.10;99.90;;;;;;5067846;28;20279;-84
2023/03/06 07:27:30;;;;;;;9.43;3.20;;;1.60;99.90;;;;;;5050099;28;20067;-84
2023/03/06 07:29:56;;;;;;;9.30;3.17;;;1.70;99.90;;;;;;5067794;28;20060;-85
2023/03/06 07:32:23;;;;;;;8.60;3.15;;;1.50;99.90;;;;;;5065119;28;20041;-84
2023/03/06 07:34:49;;;;;;;8.73;2.90;;;1.70;99.90;;;;;;5066925;28;20040;-84
2023/03/06 07:37:14;;;;;;;7.05;2.60;;;1.60;99.90;;;;;;5053255;28;20040;-85
2023/03/06 07:39:40;;;;;;;8.13;2.70;;;2.40;99.90;;;;;;5052148;28;20636;-85
2023/03/06 07:42:06;;;;;;;9.13;2.90;;;1.80;99.90;;;;;;5038335;28;20078;-85
2023/03/06 07:44:36;;;;;;;9.38;3.22;;;1.90;99.90;;;;;;5055742;28;20033;-87
2023/03/06 07:47:03;;;;;;;8.88;2.88;;;2.00;99.90;;;;;;5064820;28;20049;-84
2023/03/06 07:49:29;;;;;;;8.27;2.58;;;2.10;99.90;;;;;;5067459;28;20054;-85
2023/03/06 07:51:55;;;;;;;7.35;2.50;;;3.80;99.90;;;;;;5069809;28;20058;-84
2023/03/06 07:54:21;;;;;;;7.70;2.70;;;2.20;99.90;;;;;;5066471;28;20044;-82
2023/03/06 07:56:50;;;;;;;9.77;2.65;;;2.30;99.90;;;;;;5065897;28;20101;-83
2023/03/06 07:59:16;;;;;;;8.05;2.58;;;3.30;99.90;;;;;;5068874;28;20047;-86
2023/03/06 08:01:41;;;;;;;8.75;2.40;;;2.40;99.90;;;;;;5066524;28;20029;-86
2023/03/06 08:04:07;;;;;;;8.57;2.88;;;3.40;99.90;;;;;;5048623;28;20071;-84
2023/03/06 08:06:33;;;;;;;8.07;2.50;;;2.50;99.90;;;;;;5050298;28;20090;-84
2023/03/06 08:08:59;;;;;;;7.13;2.50;;;2.60;99.90;;;;;;5049073;28;20104;-84
2023/03/06 08:11:27;;;;;;;8.80;2.55;;;3.10;99.90;;;;;;5067173;28;20396;-85
2023/03/06 08:13:54;;;;;;;8.88;2.65;;;4.20;99.90;;;;;;5068647;28;20085;-86
2023/03/06 08:16:22;;;;;;;6.43;2.67;;;4.40;99.90;;;;;;5068618;28;20451;-85
2023/03/06 08:18:48;;;;;;;6.82;2.38;;;4.60;99.90;;;;;;5082972;28;20614;-87
2023/03/06 08:21:20;;;;;;;7.60;2.55;;;5.00;99.90;;;;;;5067219;28;20048;-83
2023/03/06 08:23:46;;;;;;;8.98;2.67;;;3.30;99.90;;;;;;5050677;28;20451;-83
2023/03/06 08:26:18;;;;;;;6.05;2.20;;;3.40;99.90;;;;;;5050252;28;20257;-85
2023/03/06 08:28:44;;;;;;;6.57;2.20;;;5.00;99.90;;;;;;5050944;28;20374;-85
2023/03/06 08:31:13;;;;;;;7.65;2.40;;;3.60;99.90;;;;;;5064901;28;20067;-84
2023/03/06 08:33:39;;;;;;;6.88;2.35;;;3.80;99.90;;;;;;5066150;28;20120;-82
2023/03/06 08:36:05;;;;;;;7.63;2.50;;;3.90;99.90;;;;;;5064317;28;20574;-85
2023/03/06 08:38:31;;;;;;;6.43;2.30;;;3.90;99.90;;;;;;5047001;28;20286;-84
2023/03/06 08:40:57;;;;;;;8.50;2.70;;;3.70;99.90;;;;;;5067801;28;21053;-84
2023/03/06 08:43:22;;;;;;;5.72;2.30;;;3.90;99.90;;;;;;5066312;28;20040;-84
2023/03/06 08:45:56;;;;;;;7.07;2.22;;;4.00;99.90;;;;;;5065624;28;20067;-87
2023/03/06 08:48:22;;;;;;;8.00;2.40;;;4.00;99.90;;;;;;5049789;28;20040;-83
2023/03/06 08:50:48;;;;;;;7.57;2.40;;;3.90;99.90;;;;;;5068110;28;20554;-83
2023/03/06 08:53:14;;;;;;;7.70;2.20;;;4.00;99.90;;;;;;5041604;28;20044;-85
2023/03/06 08:55:39;;;;;;;6.38;2.17;;;4.00;99.90;;;;;;5067953;28;20135;-84
2023/03/06 08:58:05;;;;;;;7.78;2.30;;;4.30;99.90;;;;;;5034245;28;20078;-84
2023/03/06 09:00:32;;;;;;;5.80;2.03;;;4.50;99.90;;;;;;5066634;28;20068;-85
2023/03/06 09:02:58;;;;;;;5.95;2.20;;;5.20;99.90;;;;;;5065605;28;20753;-84
2023/03/06 09:05:24;;;;;;;8.13;2.90;;;5.90;99.90;;;;;;5067674;28;20154;-87
2023/03/06 09:07:53;;;;;;;7.50;2.10;;;5.90;99.90;;;;;;5048182;28;20044;-85
2023/03/06 09:10:22;;;;;;;6.72;2.10;;;3.20;99.90;;;;;;5068086;28;20040;-85
2023/03/06 09:12:48;;;;;;;6.35;2.05;;;4.70;99.90;;;;;;5067303;28;20496;-86
2023/03/06 09:15:14;;;;;;;8.43;2.13;;;4.80;99.90;;;;;;5047205;28;20048;-84
2023/03/06 09:17:39;;;;;;;5.60;2.03;;;4.90;99.90;;;;;;5048819;28;20454;-84
2023/03/06 09:20:09;;;;;;;4.80;1.77;;;5.00;99.90;;;;;;5065933;28;20037;-85
2023/03/06 09:22:37;;;;;;;6.72;2.03;;;5.10;99.90;;;;;;5064806;28;20044;-85
2023/03/06 09:25:05;;;;;;;6.93;2.00;;;5.10;99.90;;;;;;5051066;28;20044;-85
2023/03/06 09:27:31;;;;;;;5.57;2.00;;;5.20;99.90;;;;;;5064739;28;20082;-86
2023/03/06 09:29:56;;;;;;;8.00;1.88;;;5.30;99.90;;;;;;5063243;28;20095;-84
2023/03/06 09:32:23;;;;;;;6.88;1.90;;;6.10;99.90;;;;;;5067196;28;20137;-84
2023/03/06 09:34:49;;;;;;;6.20;1.90;;;6.90;99.90;;;;;;5050494;28;20170;-87
2023/03/06 09:37:15;;;;;;;5.57;1.95;;;6.80;99.90;;;;;;5083218;28;20070;-85
2023/03/06 09:39:41;;;;;;;7.22;1.88;;;6.90;99.90;;;;;;5068362;28;20036;-85
2023/03/06 09:42:13;;;;;;;6.18;2.22;;;5.70;99.90;;;;;;5084817;28;20047;-83
2023/03/06 09:44:41;;;;;;;6.13;1.97;;;5.70;99.90;;;;;;5069468;28;20040;-84
2023/03/06 09:47:07;;;;;;;7.25;1.98;;;6.80;99.90;;;;;;5069999;28;20417;-83
2023/03/06 09:49:57;;;;;;;6.60;2.00;;;5.70;99.90;;;;;;5069460;28;20037;-84
2023/03/06 09:52:28;;;;;;;9.57;1.80;;;5.70;99.90;;;;;;5053437;28;20044;-85
2023/03/06 09:54:54;;;;;;;9.82;1.90;;;;;;;;;;5069665;28;20036;-84
2023/03/06 09:57:21;;;;;;;5.72;1.95;;;;;;;;;;5053077;28;20068;-83
2023/03/06 09:59:50;;;;;;;7.40;2.00;;;5.90;99.90;;;;;;5068716;28;20048;-84
2023/03/06 10:02:35;;;;;;;5.07;1.70;;;5.90;99.90;;;;;;5066924;28;20505;-84
2023/03/06 10:05:05;;;;;;;5.90;1.73;;;5.90;99.90;;;;;;5043130;28;20044;-84
2023/03/06 10:07:49;;;;;;;5.65;1.58;;;6.00;99.90;;;;;;5063619;28;20427;-86
2023/03/06 10:10:50;;;;;;;6.25;1.67;;;6.10;99.90;;;;;;5062578;28;20071;-86
2023/03/06 10:13:29;;;;;;;5.57;1.60;;;6.10;99.90;;;;;;5058237;28;20055;-84
2023/03/06 10:16:06;;;;;;;5.30;1.70;;;6.20;99.90;;;;;;5049942;28;20094;-85
2023/03/06 10:18:32;;;;;;;5.32;1.50;;;7.20;99.90;;;;;;5053351;28;20123;-85
2023/03/06 10:21:05;;;;;;;4.30;1.35;;;6.20;99.90;;;;;;5068127;28;20072;-84
2023/03/06 10:23:36;;;;;;;4.53;1.23;;;6.20;99.90;;;;;;5063356;28;20120;-84
2023/03/06 10:26:14;;;;;;;4.38;1.30;;;6.20;99.90;;;;;;5069504;28;20543;-83
2023/03/06 10:29:05;;;;;;;5.90;1.50;;;6.30;99.90;;;;;;5069412;28;20282;-84
2023/03/06 10:31:32;;;;;;;6.68;1.60;;;6.40;99.90;;;;;;5068093;28;20190;-85
2023/03/06 10:34:19;;;;;;;2.13;1.05;;;6.40;99.90;;;;;;5069954;28;20044;-83
2023/03/06 10:36:45;;;;;;;4.68;1.30;;;6.50;99.90;;;;;;5069292;28;20033;-84
2023/03/06 10:39:17;;;;;;;4.22;1.20;;;7.10;99.90;;;;;;5045499;28;20533;-84
2023/03/06 10:41:43;;;;;;;4.57;1.55;;;6.70;99.90;;;;;;5051863;28;20028;-85
2023/03/06 10:44:12;;;;;;;4.28;1.40;;;7.70;99.90;;;;;;5066646;28;20194;-85
2023/03/06 10:46:44;;;;;;;6.50;1.30;;;6.80;99.90;;;;;;5066632;28;20067;-84
2023/03/06 10:49:21;;;;;;;5.03;1.13;;;8.40;99.90;;;;;;5056580;28;20036;-86
2023/03/06 10:52:18;;;;;;;4.20;1.23;;;6.90;99.90;;;;;;5069299;28;20093;-84
2023/03/06 10:54:43;;;;;;;3.83;1.15;;;6.90;99.90;;;;;;5069736;28;20044;-85
2023/03/06 10:57:27;;;;;;;1.52;0.90;;;6.90;99.90;;;;;;5046615;28;20052;-85
2023/03/06 10:59:59;;;;;;;4.90;1.73;;;7.00;99.90;;;;;;5053315;28;20046;-82
2023/03/06 11:02:27;;;;;;;3.53;0.90;;;7.10;99.90;;;;;;5048991;28;20032;-84
2023/03/06 11:04:54;;;;;;;4.07;1.35;;;7.80;99.90;;;;;;5067570;28;20033;-85
2023/03/06 11:07:22;;;;;;;3.17;1.10;;;6.90;99.90;;;;;;5068344;28;20036;-86
2023/03/06 11:09:59;;;;;;;2.53;1.20;;;6.70;99.90;;;;;;5063828;28;20048;-86
2023/03/06 11:12:36;;;;;;;5.47;1.38;;;6.80;99.90;;;;;;5050682;28;20124;-87
2023/03/06 11:15:20;;;;;;;4.57;1.20;;;6.60;99.90;;;;;;5065567;28;20029;-85
2023/03/06 11:17:58;;;;;;;6.15;1.35;;;6.50;99.90;;;;;;5052042;28;20666;-85
2023/03/06 11:20:27;;;;;;;4.43;1.15;;;6.40;99.90;;;;;;5052571;28;20044;-83
2023/03/06 11:23:06;;;;;;;3.35;1.35;;;7.00;99.90;;;;;;5069369;28;20045;-83
2023/03/06 11:25:47;;;;;;;3.28;1.10;;;6.50;99.90;;;;;;5060871;28;20045;-83
2023/03/06 11:28:22;;;;;;;3.25;1.30;;;7.30;99.90;;;;;;5044712;28;20501;-84
2023/03/06 11:31:04;;;;;;;5.55;1.42;;;6.70;99.90;;;;;;5065594;28;20052;-84
2023/03/06 11:33:56;;;;;;;7.03;1.70;;;7.40;99.90;;;;;;5064932;28;20181;-87
2023/03/06 11:36:58;;;;;;;5.63;1.20;;;7.00;99.90;;;;;;5066099;28;20041;-84
2023/03/06 11:39:48;;;;;;;4.07;1.10;;;7.10;99.90;;;;;;5020217;28;20766;-86
2023/03/06 11:42:28;;;;;;;3.35;1.10;;;7.10;99.90;;;;;;5063980;28;21290;-86
2023/03/06 11:45:12;;;;;;;6.38;1.20;;;7.00;99.90;;;;;;5067060;28;20036;-85
2023/03/06 11:47:51;;;;;;;5.78;1.30;;;6.90;99.90;;;;;;5080569;28;20147;-84
2023/03/06 11:50:35;;;;;;;5.45;1.10;;;6.80;99.90;;;;;;5061966;28;20040;-83
2023/03/06 11:53:03;;;;;;;4.05;1.02;;;6.80;99.90;;;;;;5061814;28;20346;-86
2023/03/06 11:55:35;;;;;;;3.65;1.15;;;6.70;99.90;;;;;;5060269;28;20124;-86
2023/03/06 11:58:46;;;;;;;3.53;1.00;;;7.90;99.90;;;;;;5057499;28;20055;-85
2023/03/06 12:01:45;;;;;;;5.55;1.27;;;6.80;99.90;;;;;;5036930;28;20127;-85
2023/03/06 12:04:50;;;;;;;4.50;1.20;;;7.10;99.90;;;;;;5061295;28;20055;-84
2023/03/06 12:07:25;;;;;;;4.40;1.23;;;7.40;99.90;;;;;;5043916;28;20064;-84
2023/03/06 12:10:08;;;;;;;2.50;0.95;;;7.50;99.90;;;;;;5064058;28;20075;-85
2023/03/06 12:12:37;;;;;;;3.45;1.20;;;7.50;99.90;;;;;;5061457;28;20525;-84
2023/03/06 12:15:11;;;;;;;3.75;1.10;;;7.50;99.90;;;;;;5060769;28;20130;-84
2023/03/06 12:17:40;;;;;;;2.35;1.05;;;8.30;99.90;;;;;;5045393;28;20140;-85
2023/03/06 12:20:24;;;;;;;5.07;1.35;;;7.80;99.90;;;;;;5046696;28;20047;-86
2023/03/06 12:22:52;;;;;;;2.40;1.10;;;8.00;99.90;;;;;;5063387;28;20037;-86
2023/03/06 12:25:34;;;;;;;4.53;1.33;;;8.10;99.90;;;;;;5046257;28;20033;-84
2023/03/06 12:27:59;;;;;;;5.15;1.38;;;8.10;99.90;;;;;;5060371;28;20302;-85
2023/03/06 12:31:10;;;;;;;4.85;1.27;;;8.00;99.90;;;;;;5063862;28;20048;-84
2023/03/06 12:34:01;;;;;;;6.45;1.40;;;7.80;99.90;;;;;;5056880;28;20048;-84
2023/03/06 12:36:45;;;;;;;5.35;1.23;;;7.90;99.90;;;;;;5056065;28;20079;-84
2023/03/06 12:39:24;;;;;;;4.88;1.20;;;7.80;99.90;;;;;;5063477;28;20044;-85
2023/03/06 12:42:12;;;;;;;6.40;1.58;;;7.80;99.90;;;;;;5060996;28;20033;-85
2023/03/06 12:44:49;;;;;;;5.80;1.40;;;8.00;99.90;;;;;;5058785;28;20032;-86
2023/03/06 12:47:19;;;;;;;4.28;1.40;;;8.00;99.90;;;;;;5058123;28;20134;-86
2023/03/06 12:49:52;;;;;;;7.00;1.95;;;7.70;99.90;;;;;;5062032;28;20041;-87
2023/03/06 12:52:30;;;;;;;4.07;1.40;;;7.70;99.90;;;;;;5044835;28;20440;-86
2023/03/06 12:54:58;;;;;;;4.30;1.40;;;7.60;99.90;;;;;;5060295;28;20076;-84
2023/03/06 12:57:25;;;;;;;4.20;1.20;;;7.50;99.90;;;;;;5063032;28;20098;-85
2023/03/06 12:59:52;;;;;;;4.85;1.25;;;7.50;99.90;;;;;;5045440;28;20115;-86
2023/03/06 13:02:23;;;;;;;5.72;1.27;;;7.50;99.90;;;;;;5060449;28;20086;-84
2023/03/06 13:04:49;;;;;;;4.03;1.42;;;7.40;99.90;;;;;;5060275;28;20037;-85
2023/03/06 13:07:32;;;;;;;6.05;1.40;;;7.30;99.90;;;;;;5060035;28;20449;-84
2023/03/06 13:10:04;;;;;;;3.72;1.10;;;7.30;99.90;;;;;;5076578;28;20037;-85